sensor_id;sensor_type;location;lat;lon;timestamp;P1;durP1;ratioP1;P2;durP2;ratioP2
46198;SDS011;31928;52.104;10.030;2023-02-18T00:00:59;3.22;;;2.92;;
46198;SDS011;31928;52.104;10.030;2023-02-18T00:03:27;5.80;;;3.90;;
46198;SDS011;31928;52.104;10.030;2023-02-18T00:05:54;5.15;;;4.60;;
46198;SDS011;31928;52.104;10.030;2023-02-18T00:08:20;4.07;;;3.30;;
46198;SDS011;31928;52.104;10.030;2023-02-18T00:10:48;3.50;;;3.10;;
46198;SDS011;31928;52.104;10.030;2023-02-18T00:13:14;7.75;;;5.30;;
46198;SDS011;31928;52.104;10.030;2023-02-18T00:15:41;5.22;;;3.53;;
46198;SDS011;31928;52.104;10.030;2023-02-18T00:18:08;4.00;;;3.70;;
46198;SDS011;31928;52.104;10.030;2023-02-18T00:20:34;5.05;;;4.00;;
46198;SDS011;31928;52.104;10.030;2023-02-18T00:23:04;6.15;;;4.72;;
46198;SDS011;31928;52.104;10.030;2023-02-18T00:25:31;4.50;;;4.10;;
46198;SDS011;31928;52.104;10.030;2023-02-18T00:27:57;4.65;;;3.88;;
46198;SDS011;31928;52.104;10.030;2023-02-18T00:30:23;5.50;;;2.67;;
46198;SDS011;31928;52.104;10.030;2023-02-18T00:32:50;4.68;;;3.03;;
46198;SDS011;31928;52.104;10.030;2023-02-18T00:35:16;4.35;;;3.03;;
46198;SDS011;31928;52.104;10.030;2023-02-18T00:37:43;4.57;;;2.40;;
46198;SDS011;31928;52.104;10.030;2023-02-18T00:40:10;5.20;;;4.65;;
46198;SDS011;31928;52.104;10.030;2023-02-18T00:45:03;3.47;;;2.40;;
46198;SDS011;31928;52.104;10.030;2023-02-18T00:49:56;2.15;;;2.00;;
46198;SDS011;31928;52.104;10.030;2023-02-18T00:52:22;2.83;;;2.30;;
46198;SDS011;31928;52.104;10.030;2023-02-18T00:54:49;2.92;;;2.35;;
46198;SDS011;31928;52.104;10.030;2023-02-18T00:57:15;3.00;;;2.38;;
46198;SDS011;31928;52.104;10.030;2023-02-18T00:59:42;3.03;;;2.42;;
46198;SDS011;31928;52.104;10.030;2023-02-18T01:02:08;4.07;;;2.28;;
46198;SDS011;31928;52.104;10.030;2023-02-18T01:04:35;4.25;;;2.63;;
46198;SDS011;31928;52.104;10.030;2023-02-18T01:07:01;4.32;;;2.33;;
46198;SDS011;31928;52.104;10.030;2023-02-18T01:09:28;2.90;;;2.67;;
46198;SDS011;31928;52.104;10.030;2023-02-18T01:11:54;2.20;;;2.00;;
46198;SDS011;31928;52.104;10.030;2023-02-18T01:14:21;3.88;;;2.65;;
46198;SDS011;31928;52.104;10.030;2023-02-18T01:16:47;3.88;;;2.40;;
46198;SDS011;31928;52.104;10.030;2023-02-18T01:19:14;3.08;;;2.88;;
46198;SDS011;31928;52.104;10.030;2023-02-18T01:21:40;3.08;;;2.70;;
46198;SDS011;31928;52.104;10.030;2023-02-18T01:24:07;2.70;;;2.20;;
46198;SDS011;31928;52.104;10.030;2023-02-18T01:26:33;4.60;;;2.47;;
46198;SDS011;31928;52.104;10.030;2023-02-18T01:29:00;4.95;;;3.25;;
46198;SDS011;31928;52.104;10.030;2023-02-18T01:31:26;3.42;;;2.78;;
46198;SDS011;31928;52.104;10.030;2023-02-18T01:33:53;3.72;;;2.17;;
46198;SDS011;31928;52.104;10.030;2023-02-18T01:36:19;3.45;;;3.00;;
46198;SDS011;31928;52.104;10.030;2023-02-18T01:38:46;8.63;;;3.22;;
46198;SDS011;31928;52.104;10.030;2023-02-18T01:41:12;2.75;;;2.30;;
46198;SDS011;31928;52.104;10.030;2023-02-18T01:43:39;3.10;;;2.58;;
46198;SDS011;31928;52.104;10.030;2023-02-18T01:46:13;4.43;;;2.55;;
46198;SDS011;31928;52.104;10.030;2023-02-18T01:49:03;5.17;;;2.60;;
46198;SDS011;31928;52.104;10.030;2023-02-18T01:51:29;6.18;;;3.25;;
46198;SDS011;31928;52.104;10.030;2023-02-18T01:54:07;4.90;;;2.38;;
46198;SDS011;31928;52.104;10.030;2023-02-18T01:56:40;4.57;;;2.78;;
46198;SDS011;31928;52.104;10.030;2023-02-18T01:59:12;4.40;;;2.38;;
46198;SDS011;31928;52.104;10.030;2023-02-18T02:01:42;4.18;;;2.35;;
46198;SDS011;31928;52.104;10.030;2023-02-18T02:04:10;4.15;;;2.85;;
46198;SDS011;31928;52.104;10.030;2023-02-18T02:06:37;3.08;;;2.35;;
46198;SDS011;31928;52.104;10.030;2023-02-18T02:09:04;5.15;;;2.72;;
46198;SDS011;31928;52.104;10.030;2023-02-18T02:11:40;3.25;;;2.72;;
46198;SDS011;31928;52.104;10.030;2023-02-18T02:16:55;3.95;;;2.55;;
46198;SDS011;31928;52.104;10.030;2023-02-18T02:19:47;2.50;;;2.20;;
46198;SDS011;31928;52.104;10.030;2023-02-18T02:22:55;4.57;;;3.10;;
46198;SDS011;31928;52.104;10.030;2023-02-18T02:44:43;4.57;;;3.30;;
46198;SDS011;31928;52.104;10.030;2023-02-18T02:47:26;6.28;;;3.60;;
46198;SDS011;31928;52.104;10.030;2023-02-18T02:50:08;5.85;;;3.80;;
46198;SDS011;31928;52.104;10.030;2023-02-18T02:52:47;6.05;;;4.38;;
46198;SDS011;31928;52.104;10.030;2023-02-18T02:55:17;8.18;;;4.20;;
46198;SDS011;31928;52.104;10.030;2023-02-18T02:57:45;7.78;;;4.72;;
46198;SDS011;31928;52.104;10.030;2023-02-18T03:00:14;4.65;;;3.65;;
46198;SDS011;31928;52.104;10.030;2023-02-18T03:14:11;5.78;;;3.67;;
46198;SDS011;31928;52.104;10.030;2023-02-18T03:16:44;7.82;;;3.90;;
46198;SDS011;31928;52.104;10.030;2023-02-18T03:19:21;9.18;;;4.85;;
46198;SDS011;31928;52.104;10.030;2023-02-18T03:21:57;5.72;;;4.78;;
46198;SDS011;31928;52.104;10.030;2023-02-18T03:24:37;5.15;;;4.75;;
46198;SDS011;31928;52.104;10.030;2023-02-18T03:27:21;6.00;;;4.73;;
46198;SDS011;31928;52.104;10.030;2023-02-18T03:29:55;6.72;;;5.60;;
46198;SDS011;31928;52.104;10.030;2023-02-18T03:32:28;7.40;;;4.93;;
46198;SDS011;31928;52.104;10.030;2023-02-18T03:35:02;6.50;;;5.32;;
46198;SDS011;31928;52.104;10.030;2023-02-18T03:37:37;7.05;;;5.85;;
46198;SDS011;31928;52.104;10.030;2023-02-18T03:40:08;7.38;;;5.82;;
46198;SDS011;31928;52.104;10.030;2023-02-18T03:42:36;9.40;;;6.50;;
46198;SDS011;31928;52.104;10.030;2023-02-18T03:45:03;10.40;;;7.00;;
46198;SDS011;31928;52.104;10.030;2023-02-18T03:49:56;8.93;;;7.05;;
46198;SDS011;31928;52.104;10.030;2023-02-18T03:52:22;10.20;;;8.00;;
46198;SDS011;31928;52.104;10.030;2023-02-18T03:54:49;9.40;;;7.78;;
46198;SDS011;31928;52.104;10.030;2023-02-18T03:57:16;8.57;;;6.47;;
46198;SDS011;31928;52.104;10.030;2023-02-18T03:59:42;7.28;;;6.57;;
46198;SDS011;31928;52.104;10.030;2023-02-18T04:02:09;8.32;;;6.90;;
46198;SDS011;31928;52.104;10.030;2023-02-18T04:04:35;8.35;;;7.50;;
46198;SDS011;31928;52.104;10.030;2023-02-18T04:07:02;11.75;;;7.57;;
46198;SDS011;31928;52.104;10.030;2023-02-18T04:09:28;11.65;;;7.30;;
46198;SDS011;31928;52.104;10.030;2023-02-18T04:11:55;9.70;;;8.80;;
46198;SDS011;31928;52.104;10.030;2023-02-18T04:14:21;9.82;;;7.72;;
46198;SDS011;31928;52.104;10.030;2023-02-18T04:16:48;8.60;;;7.43;;
46198;SDS011;31928;52.104;10.030;2023-02-18T04:19:14;10.43;;;8.15;;
46198;SDS011;31928;52.104;10.030;2023-02-18T04:21:41;10.63;;;8.50;;
46198;SDS011;31928;52.104;10.030;2023-02-18T04:24:07;12.63;;;9.55;;
46198;SDS011;31928;52.104;10.030;2023-02-18T04:26:34;11.60;;;9.93;;
46198;SDS011;31928;52.104;10.030;2023-02-18T04:29:00;9.82;;;8.10;;
46198;SDS011;31928;52.104;10.030;2023-02-18T04:31:27;12.98;;;8.63;;
46198;SDS011;31928;52.104;10.030;2023-02-18T04:33:54;8.52;;;7.18;;
46198;SDS011;31928;52.104;10.030;2023-02-18T04:36:21;14.45;;;9.45;;
46198;SDS011;31928;52.104;10.030;2023-02-18T04:38:47;9.18;;;8.35;;
46198;SDS011;31928;52.104;10.030;2023-02-18T04:41:13;10.15;;;8.10;;
46198;SDS011;31928;52.104;10.030;2023-02-18T04:43:40;10.95;;;8.45;;
46198;SDS011;31928;52.104;10.030;2023-02-18T04:46:07;9.27;;;7.95;;
46198;SDS011;31928;52.104;10.030;2023-02-18T04:48:34;7.90;;;7.05;;
46198;SDS011;31928;52.104;10.030;2023-02-18T04:51:01;10.32;;;8.50;;
46198;SDS011;31928;52.104;10.030;2023-02-18T04:53:28;11.40;;;8.65;;
46198;SDS011;31928;52.104;10.030;2023-02-18T04:55:54;9.68;;;8.73;;
46198;SDS011;31928;52.104;10.030;2023-02-18T04:58:21;10.70;;;8.68;;
46198;SDS011;31928;52.104;10.030;2023-02-18T05:03:14;10.57;;;8.10;;
46198;SDS011;31928;52.104;10.030;2023-02-18T05:05:41;10.40;;;8.00;;
46198;SDS011;31928;52.104;10.030;2023-02-18T05:08:07;9.77;;;8.05;;
46198;SDS011;31928;52.104;10.030;2023-02-18T05:10:34;9.52;;;8.55;;
46198;SDS011;31928;52.104;10.030;2023-02-18T05:13:00;13.80;;;10.20;;
46198;SDS011;31928;52.104;10.030;2023-02-18T05:15:27;13.07;;;10.35;;
46198;SDS011;31928;52.104;10.030;2023-02-18T05:17:54;10.75;;;9.00;;
46198;SDS011;31928;52.104;10.030;2023-02-18T05:20:27;9.52;;;8.52;;
46198;SDS011;31928;52.104;10.030;2023-02-18T05:22:54;10.93;;;8.98;;
46198;SDS011;31928;52.104;10.030;2023-02-18T05:27:47;15.02;;;9.63;;
46198;SDS011;31928;52.104;10.030;2023-02-18T05:30:14;10.98;;;9.43;;
46198;SDS011;31928;52.104;10.030;2023-02-18T05:32:40;8.13;;;7.30;;
46198;SDS011;31928;52.104;10.030;2023-02-18T05:35:07;12.68;;;9.25;;
46198;SDS011;31928;52.104;10.030;2023-02-18T05:37:33;13.25;;;11.30;;
46198;SDS011;31928;52.104;10.030;2023-02-18T05:40:00;12.48;;;9.95;;
46198;SDS011;31928;52.104;10.030;2023-02-18T05:42:27;11.25;;;9.68;;
46198;SDS011;31928;52.104;10.030;2023-02-18T05:44:53;15.07;;;11.55;;
46198;SDS011;31928;52.104;10.030;2023-02-18T05:47:20;12.15;;;9.73;;
46198;SDS011;31928;52.104;10.030;2023-02-18T05:49:46;11.23;;;9.45;;
46198;SDS011;31928;52.104;10.030;2023-02-18T05:52:12;10.20;;;8.65;;
46198;SDS011;31928;52.104;10.030;2023-02-18T05:54:39;9.85;;;8.70;;
46198;SDS011;31928;52.104;10.030;2023-02-18T05:57:05;10.88;;;9.65;;
46198;SDS011;31928;52.104;10.030;2023-02-18T05:59:32;8.90;;;8.00;;
46198;SDS011;31928;52.104;10.030;2023-02-18T06:01:59;10.73;;;8.20;;
46198;SDS011;31928;52.104;10.030;2023-02-18T06:06:52;10.82;;;7.28;;
46198;SDS011;31928;52.104;10.030;2023-02-18T06:09:18;9.15;;;6.97;;
46198;SDS011;31928;52.104;10.030;2023-02-18T06:11:45;7.75;;;7.03;;
46198;SDS011;31928;52.104;10.030;2023-02-18T06:14:11;9.10;;;8.20;;
46198;SDS011;31928;52.104;10.030;2023-02-18T06:16:38;8.73;;;7.82;;
46198;SDS011;31928;52.104;10.030;2023-02-18T06:19:05;8.73;;;7.40;;
46198;SDS011;31928;52.104;10.030;2023-02-18T06:21:31;9.15;;;7.60;;
46198;SDS011;31928;52.104;10.030;2023-02-18T06:23:58;9.93;;;8.90;;
46198;SDS011;31928;52.104;10.030;2023-02-18T06:26:25;8.88;;;7.95;;
46198;SDS011;31928;52.104;10.030;2023-02-18T06:28:52;9.32;;;8.43;;
46198;SDS011;31928;52.104;10.030;2023-02-18T06:31:18;9.75;;;8.77;;
46198;SDS011;31928;52.104;10.030;2023-02-18T06:33:45;9.75;;;8.77;;
46198;SDS011;31928;52.104;10.030;2023-02-18T06:38:39;7.90;;;7.20;;
46198;SDS011;31928;52.104;10.030;2023-02-18T06:41:07;8.95;;;8.05;;
46198;SDS011;31928;52.104;10.030;2023-02-18T06:43:34;10.63;;;9.57;;
46198;SDS011;31928;52.104;10.030;2023-02-18T06:46:01;11.45;;;10.05;;
46198;SDS011;31928;52.104;10.030;2023-02-18T06:48:28;11.00;;;9.30;;
46198;SDS011;31928;52.104;10.030;2023-02-18T06:53:21;8.05;;;7.35;;
46198;SDS011;31928;52.104;10.030;2023-02-18T06:55:48;10.77;;;9.00;;
46198;SDS011;31928;52.104;10.030;2023-02-18T07:00:42;8.33;;;7.60;;
46198;SDS011;31928;52.104;10.030;2023-02-18T07:03:10;8.23;;;7.00;;
46198;SDS011;31928;52.104;10.030;2023-02-18T07:05:38;7.53;;;6.82;;
46198;SDS011;31928;52.104;10.030;2023-02-18T07:08:05;7.70;;;7.00;;
46198;SDS011;31928;52.104;10.030;2023-02-18T07:10:31;7.80;;;7.10;;
46198;SDS011;31928;52.104;10.030;2023-02-18T07:12:58;7.28;;;6.63;;
46198;SDS011;31928;52.104;10.030;2023-02-18T07:15:24;7.47;;;6.88;;
46198;SDS011;31928;52.104;10.030;2023-02-18T07:17:53;7.82;;;7.05;;
46198;SDS011;31928;52.104;10.030;2023-02-18T07:22:46;6.75;;;6.05;;
46198;SDS011;31928;52.104;10.030;2023-02-18T07:25:13;5.60;;;5.13;;
46198;SDS011;31928;52.104;10.030;2023-02-18T07:27:40;6.18;;;5.68;;
46198;SDS011;31928;52.104;10.030;2023-02-18T07:30:07;6.15;;;5.53;;
46198;SDS011;31928;52.104;10.030;2023-02-18T07:32:34;4.85;;;4.45;;
46198;SDS011;31928;52.104;10.030;2023-02-18T07:35:01;4.10;;;3.80;;
46198;SDS011;31928;52.104;10.030;2023-02-18T07:37:28;3.97;;;3.67;;
46198;SDS011;31928;52.104;10.030;2023-02-18T07:39:55;3.80;;;3.50;;
46198;SDS011;31928;52.104;10.030;2023-02-18T07:42:21;3.83;;;3.53;;
46198;SDS011;31928;52.104;10.030;2023-02-18T07:44:48;3.72;;;3.40;;
46198;SDS011;31928;52.104;10.030;2023-02-18T07:47:16;3.65;;;3.40;;
46198;SDS011;31928;52.104;10.030;2023-02-18T07:49:45;3.00;;;2.80;;
46198;SDS011;31928;52.104;10.030;2023-02-18T07:52:12;2.90;;;2.70;;
46198;SDS011;31928;52.104;10.030;2023-02-18T07:54:40;2.92;;;2.72;;
46198;SDS011;31928;52.104;10.030;2023-02-18T07:57:06;2.92;;;2.72;;
46198;SDS011;31928;52.104;10.030;2023-02-18T07:59:33;2.72;;;2.53;;
46198;SDS011;31928;52.104;10.030;2023-02-18T08:01:59;2.50;;;2.40;;
46198;SDS011;31928;52.104;10.030;2023-02-18T08:04:26;2.13;;;2.03;;
46198;SDS011;31928;52.104;10.030;2023-02-18T08:06:52;2.50;;;2.40;;
46198;SDS011;31928;52.104;10.030;2023-02-18T08:09:19;2.47;;;2.38;;
46198;SDS011;31928;52.104;10.030;2023-02-18T08:11:45;1.90;;;1.80;;
46198;SDS011;31928;52.104;10.030;2023-02-18T08:14:12;1.73;;;1.63;;
46198;SDS011;31928;52.104;10.030;2023-02-18T08:16:38;2.00;;;1.90;;
46198;SDS011;31928;52.104;10.030;2023-02-18T08:19:05;1.67;;;1.60;;
46198;SDS011;31928;52.104;10.030;2023-02-18T08:21:33;2.90;;;1.95;;
46198;SDS011;31928;52.104;10.030;2023-02-18T08:26:26;1.80;;;1.70;;
46198;SDS011;31928;52.104;10.030;2023-02-18T08:28:52;1.75;;;1.65;;
46198;SDS011;31928;52.104;10.030;2023-02-18T08:31:24;1.75;;;1.70;;
46198;SDS011;31928;52.104;10.030;2023-02-18T08:33:52;1.92;;;1.70;;
46198;SDS011;31928;52.104;10.030;2023-02-18T08:36:20;1.42;;;1.42;;
46198;SDS011;31928;52.104;10.030;2023-02-18T08:38:47;1.77;;;1.75;;
46198;SDS011;31928;52.104;10.030;2023-02-18T08:41:14;1.85;;;1.75;;
46198;SDS011;31928;52.104;10.030;2023-02-18T08:43:41;1.73;;;1.70;;
46198;SDS011;31928;52.104;10.030;2023-02-18T08:48:41;1.60;;;1.60;;
46198;SDS011;31928;52.104;10.030;2023-02-18T08:53:39;1.77;;;1.67;;
46198;SDS011;31928;52.104;10.030;2023-02-18T09:01:03;1.88;;;1.77;;
46198;SDS011;31928;52.104;10.030;2023-02-18T09:03:32;1.55;;;1.55;;
46198;SDS011;31928;52.104;10.030;2023-02-18T09:05:59;1.65;;;1.65;;
46198;SDS011;31928;52.104;10.030;2023-02-18T09:08:26;1.73;;;1.70;;
46198;SDS011;31928;52.104;10.030;2023-02-18T09:10:57;1.60;;;1.50;;
46198;SDS011;31928;52.104;10.030;2023-02-18T09:13:25;1.58;;;1.58;;
46198;SDS011;31928;52.104;10.030;2023-02-18T09:15:56;1.70;;;1.60;;
46198;SDS011;31928;52.104;10.030;2023-02-18T09:18:27;1.60;;;1.60;;
46198;SDS011;31928;52.104;10.030;2023-02-18T09:23:21;1.70;;;1.70;;
46198;SDS011;31928;52.104;10.030;2023-02-18T09:25:48;1.40;;;1.40;;
46198;SDS011;31928;52.104;10.030;2023-02-18T09:28:14;1.50;;;1.50;;
46198;SDS011;31928;52.104;10.030;2023-02-18T09:30:41;1.60;;;1.60;;
46198;SDS011;31928;52.104;10.030;2023-02-18T09:33:07;1.60;;;1.60;;
46198;SDS011;31928;52.104;10.030;2023-02-18T09:35:37;1.80;;;1.70;;
46198;SDS011;31928;52.104;10.030;2023-02-18T09:38:05;1.50;;;1.50;;
46198;SDS011;31928;52.104;10.030;2023-02-18T09:40:32;1.80;;;1.80;;
46198;SDS011;31928;52.104;10.030;2023-02-18T09:43:00;1.50;;;1.50;;
46198;SDS011;31928;52.104;10.030;2023-02-18T09:45:27;1.63;;;1.60;;
46198;SDS011;31928;52.104;10.030;2023-02-18T09:47:54;1.75;;;1.65;;
46198;SDS011;31928;52.104;10.030;2023-02-18T09:50:25;1.60;;;1.60;;
46198;SDS011;31928;52.104;10.030;2023-02-18T09:52:54;1.50;;;1.50;;
46198;SDS011;31928;52.104;10.030;2023-02-18T09:58:02;1.60;;;1.60;;
46198;SDS011;31928;52.104;10.030;2023-02-18T10:00:37;1.75;;;1.75;;
46198;SDS011;31928;52.104;10.030;2023-02-18T10:05:57;1.70;;;1.70;;
46198;SDS011;31928;52.104;10.030;2023-02-18T10:08:28;2.00;;;1.90;;
46198;SDS011;31928;52.104;10.030;2023-02-18T10:11:00;1.83;;;1.73;;
46198;SDS011;31928;52.104;10.030;2023-02-18T10:13:28;1.90;;;1.80;;
46198;SDS011;31928;52.104;10.030;2023-02-18T10:15:56;2.20;;;2.10;;
46198;SDS011;31928;52.104;10.030;2023-02-18T10:18:30;1.90;;;1.80;;
46198;SDS011;31928;52.104;10.030;2023-02-18T10:21:13;1.92;;;1.80;;
46198;SDS011;31928;52.104;10.030;2023-02-18T10:23:52;1.90;;;1.80;;
46198;SDS011;31928;52.104;10.030;2023-02-18T10:26:21;1.85;;;1.77;;
46198;SDS011;31928;52.104;10.030;2023-02-18T10:31:17;1.98;;;1.88;;
46198;SDS011;31928;52.104;10.030;2023-02-18T10:33:58;2.05;;;1.95;;
46198;SDS011;31928;52.104;10.030;2023-02-18T10:36:40;2.05;;;1.95;;
46198;SDS011;31928;52.104;10.030;2023-02-18T10:45:07;2.10;;;2.00;;
46198;SDS011;31928;52.104;10.030;2023-02-18T10:47:36;2.20;;;2.10;;
46198;SDS011;31928;52.104;10.030;2023-02-18T10:50:14;2.20;;;2.10;;
46198;SDS011;31928;52.104;10.030;2023-02-18T10:53:01;2.25;;;2.15;;
46198;SDS011;31928;52.104;10.030;2023-02-18T10:55:40;2.40;;;2.30;;
46198;SDS011;31928;52.104;10.030;2023-02-18T11:01:15;2.17;;;2.08;;
46198;SDS011;31928;52.104;10.030;2023-02-18T11:03:45;2.58;;;2.38;;
46198;SDS011;31928;52.104;10.030;2023-02-18T11:08:52;2.30;;;2.20;;
46198;SDS011;31928;52.104;10.030;2023-02-18T11:11:22;2.15;;;2.05;;
46198;SDS011;31928;52.104;10.030;2023-02-18T11:13:54;2.10;;;2.00;;
46198;SDS011;31928;52.104;10.030;2023-02-18T11:16:24;2.40;;;2.30;;
46198;SDS011;31928;52.104;10.030;2023-02-18T11:19:02;2.20;;;2.10;;
46198;SDS011;31928;52.104;10.030;2023-02-18T11:21:33;2.50;;;2.40;;
46198;SDS011;31928;52.104;10.030;2023-02-18T11:24:09;2.20;;;2.10;;
46198;SDS011;31928;52.104;10.030;2023-02-18T11:26:41;2.35;;;2.25;;
46198;SDS011;31928;52.104;10.030;2023-02-18T11:29:21;2.22;;;2.10;;
46198;SDS011;31928;52.104;10.030;2023-02-18T11:31:52;2.33;;;2.22;;
46198;SDS011;31928;52.104;10.030;2023-02-18T11:34:22;2.10;;;2.00;;
46198;SDS011;31928;52.104;10.030;2023-02-18T11:36:53;2.20;;;2.10;;
46198;SDS011;31928;52.104;10.030;2023-02-18T11:39:25;2.53;;;2.42;;
46198;SDS011;31928;52.104;10.030;2023-02-18T11:49:22;2.20;;;2.10;;
46198;SDS011;31928;52.104;10.030;2023-02-18T11:51:50;2.40;;;2.30;;
46198;SDS011;31928;52.104;10.030;2023-02-18T11:54:21;2.55;;;2.35;;
46198;SDS011;31928;52.104;10.030;2023-02-18T11:57:00;2.33;;;2.22;;
46198;SDS011;31928;52.104;10.030;2023-02-18T11:59:28;2.53;;;2.42;;
46198;SDS011;31928;52.104;10.030;2023-02-18T12:04:39;2.10;;;2.00;;
46198;SDS011;31928;52.104;10.030;2023-02-18T12:09:57;2.65;;;2.55;;
46198;SDS011;31928;52.104;10.030;2023-02-18T12:12:37;2.53;;;2.42;;
46198;SDS011;31928;52.104;10.030;2023-02-18T12:15:13;2.38;;;2.28;;
46198;SDS011;31928;52.104;10.030;2023-02-18T12:29:03;2.40;;;2.30;;
46198;SDS011;31928;52.104;10.030;2023-02-18T12:37:46;2.67;;;2.57;;
46198;SDS011;31928;52.104;10.030;2023-02-18T12:48:54;3.03;;;2.83;;
46198;SDS011;31928;52.104;10.030;2023-02-18T12:51:41;2.90;;;2.70;;
46198;SDS011;31928;52.104;10.030;2023-02-18T12:54:30;2.70;;;2.60;;
46198;SDS011;31928;52.104;10.030;2023-02-18T13:00:02;2.75;;;2.65;;
46198;SDS011;31928;52.104;10.030;2023-02-18T13:08:52;2.72;;;2.63;;
46198;SDS011;31928;52.104;10.030;2023-02-18T13:11:30;2.72;;;2.63;;
46198;SDS011;31928;52.104;10.030;2023-02-18T13:14:20;3.00;;;2.80;;
46198;SDS011;31928;52.104;10.030;2023-02-18T13:16:53;2.53;;;2.42;;
46198;SDS011;31928;52.104;10.030;2023-02-18T13:22:13;2.95;;;2.80;;
46198;SDS011;31928;52.104;10.030;2023-02-18T13:24:42;2.78;;;2.58;;
46198;SDS011;31928;52.104;10.030;2023-02-18T13:32:24;2.75;;;2.60;;
46198;SDS011;31928;52.104;10.030;2023-02-18T13:35:16;2.60;;;2.50;;
46198;SDS011;31928;52.104;10.030;2023-02-18T13:40:21;2.83;;;2.63;;
46198;SDS011;31928;52.104;10.030;2023-02-18T13:42:51;2.97;;;2.78;;
46198;SDS011;31928;52.104;10.030;2023-02-18T13:45:22;2.67;;;2.50;;
46198;SDS011;31928;52.104;10.030;2023-02-18T13:47:53;2.47;;;2.38;;
46198;SDS011;31928;52.104;10.030;2023-02-18T13:52:48;2.53;;;2.42;;
46198;SDS011;31928;52.104;10.030;2023-02-18T13:55:20;2.30;;;2.20;;
46198;SDS011;31928;52.104;10.030;2023-02-18T13:57:49;2.58;;;2.47;;
46198;SDS011;31928;52.104;10.030;2023-02-18T14:00:22;2.80;;;2.70;;
46198;SDS011;31928;52.104;10.030;2023-02-18T14:02:55;2.20;;;2.10;;
46198;SDS011;31928;52.104;10.030;2023-02-18T14:05:37;2.30;;;2.20;;
46198;SDS011;31928;52.104;10.030;2023-02-18T14:08:10;2.40;;;2.30;;
46198;SDS011;31928;52.104;10.030;2023-02-18T14:10:37;2.53;;;2.42;;
46198;SDS011;31928;52.104;10.030;2023-02-18T14:13:21;2.55;;;2.40;;
46198;SDS011;31928;52.104;10.030;2023-02-18T14:18:30;2.30;;;2.20;;
46198;SDS011;31928;52.104;10.030;2023-02-18T14:21:03;3.55;;;2.42;;
46198;SDS011;31928;52.104;10.030;2023-02-18T14:26:31;2.40;;;2.30;;
46198;SDS011;31928;52.104;10.030;2023-02-18T14:29:02;2.70;;;2.53;;
46198;SDS011;31928;52.104;10.030;2023-02-18T14:31:39;2.50;;;2.40;;
46198;SDS011;31928;52.104;10.030;2023-02-18T14:34:15;2.60;;;2.50;;
46198;SDS011;31928;52.104;10.030;2023-02-18T14:40:13;2.67;;;2.58;;
46198;SDS011;31928;52.104;10.030;2023-02-18T14:48:36;2.33;;;2.22;;
46198;SDS011;31928;52.104;10.030;2023-02-18T14:51:08;2.50;;;2.40;;
46198;SDS011;31928;52.104;10.030;2023-02-18T14:53:39;2.78;;;2.58;;
46198;SDS011;31928;52.104;10.030;2023-02-18T14:56:10;2.60;;;2.42;;
46198;SDS011;31928;52.104;10.030;2023-02-18T14:58:49;2.42;;;2.33;;
46198;SDS011;31928;52.104;10.030;2023-02-18T15:03:49;2.60;;;2.50;;
46198;SDS011;31928;52.104;10.030;2023-02-18T15:09:11;2.42;;;2.30;;
46198;SDS011;31928;52.104;10.030;2023-02-18T15:11:39;2.70;;;2.60;;
46198;SDS011;31928;52.104;10.030;2023-02-18T15:14:30;2.25;;;2.15;;
46198;SDS011;31928;52.104;10.030;2023-02-18T15:17:03;2.65;;;2.45;;
46198;SDS011;31928;52.104;10.030;2023-02-18T15:19:36;2.33;;;2.22;;
46198;SDS011;31928;52.104;10.030;2023-02-18T15:22:06;2.15;;;2.05;;
46198;SDS011;31928;52.104;10.030;2023-02-18T15:24:42;2.13;;;2.03;;
46198;SDS011;31928;52.104;10.030;2023-02-18T15:29:50;2.22;;;2.13;;
46198;SDS011;31928;52.104;10.030;2023-02-18T15:32:25;2.50;;;2.40;;
46198;SDS011;31928;52.104;10.030;2023-02-18T15:34:58;2.22;;;2.13;;
46198;SDS011;31928;52.104;10.030;2023-02-18T15:37:29;2.10;;;2.00;;
46198;SDS011;31928;52.104;10.030;2023-02-18T15:39:56;2.00;;;1.90;;
46198;SDS011;31928;52.104;10.030;2023-02-18T15:42:27;2.00;;;1.90;;
46198;SDS011;31928;52.104;10.030;2023-02-18T15:45:17;2.58;;;2.00;;
46198;SDS011;31928;52.104;10.030;2023-02-18T15:47:49;2.28;;;2.10;;
46198;SDS011;31928;52.104;10.030;2023-02-18T15:50:20;2.30;;;2.20;;
46198;SDS011;31928;52.104;10.030;2023-02-18T15:53:10;2.08;;;1.98;;
46198;SDS011;31928;52.104;10.030;2023-02-18T15:55:41;2.30;;;2.20;;
46198;SDS011;31928;52.104;10.030;2023-02-18T16:00:48;2.80;;;2.60;;
46198;SDS011;31928;52.104;10.030;2023-02-18T16:03:26;2.85;;;2.65;;
46198;SDS011;31928;52.104;10.030;2023-02-18T16:08:54;2.70;;;2.50;;
46198;SDS011;31928;52.104;10.030;2023-02-18T16:11:23;2.72;;;2.53;;
46198;SDS011;31928;52.104;10.030;2023-02-18T16:13:52;4.75;;;3.13;;
46198;SDS011;31928;52.104;10.030;2023-02-18T16:16:21;3.53;;;3.20;;
46198;SDS011;31928;52.104;10.030;2023-02-18T16:19:20;2.65;;;2.55;;
46198;SDS011;31928;52.104;10.030;2023-02-18T16:21:49;3.25;;;2.70;;
46198;SDS011;31928;52.104;10.030;2023-02-18T16:24:26;4.20;;;2.83;;
46198;SDS011;31928;52.104;10.030;2023-02-18T16:26:56;3.30;;;3.03;;
46198;SDS011;31928;52.104;10.030;2023-02-18T16:29:24;3.05;;;2.83;;
46198;SDS011;31928;52.104;10.030;2023-02-18T16:31:59;3.35;;;3.05;;
46198;SDS011;31928;52.104;10.030;2023-02-18T16:34:25;3.33;;;2.95;;
46198;SDS011;31928;52.104;10.030;2023-02-18T16:36:53;4.63;;;3.08;;
46198;SDS011;31928;52.104;10.030;2023-02-18T16:39:38;3.10;;;2.90;;
46198;SDS011;31928;52.104;10.030;2023-02-18T16:44:36;2.97;;;2.78;;
46198;SDS011;31928;52.104;10.030;2023-02-18T16:47:03;3.17;;;2.90;;
46198;SDS011;31928;52.104;10.030;2023-02-18T16:49:30;3.50;;;3.20;;
46198;SDS011;31928;52.104;10.030;2023-02-18T16:51:58;3.78;;;2.83;;
46198;SDS011;31928;52.104;10.030;2023-02-18T16:54:26;3.13;;;2.80;;
46198;SDS011;31928;52.104;10.030;2023-02-18T16:56:54;6.55;;;5.70;;
46198;SDS011;31928;52.104;10.030;2023-02-18T16:59:20;4.72;;;3.83;;
46198;SDS011;31928;52.104;10.030;2023-02-18T17:01:47;4.28;;;3.97;;
46198;SDS011;31928;52.104;10.030;2023-02-18T17:06:41;3.45;;;3.13;;
46198;SDS011;31928;52.104;10.030;2023-02-18T17:09:13;3.35;;;3.13;;
46198;SDS011;31928;52.104;10.030;2023-02-18T17:11:47;3.40;;;3.20;;
46198;SDS011;31928;52.104;10.030;2023-02-18T17:14:16;4.72;;;3.00;;
46198;SDS011;31928;52.104;10.030;2023-02-18T17:16:44;3.67;;;3.38;;
46198;SDS011;31928;52.104;10.030;2023-02-18T17:19:16;3.67;;;3.30;;
46198;SDS011;31928;52.104;10.030;2023-02-18T17:21:43;3.67;;;3.30;;
46198;SDS011;31928;52.104;10.030;2023-02-18T17:24:13;3.15;;;2.95;;
46198;SDS011;31928;52.104;10.030;2023-02-18T17:26:41;3.65;;;3.35;;
46198;SDS011;31928;52.104;10.030;2023-02-18T17:29:08;3.22;;;2.97;;
46198;SDS011;31928;52.104;10.030;2023-02-18T17:34:04;3.75;;;3.00;;
46198;SDS011;31928;52.104;10.030;2023-02-18T17:36:33;3.83;;;3.10;;
46198;SDS011;31928;52.104;10.030;2023-02-18T17:38:59;4.78;;;3.38;;
46198;SDS011;31928;52.104;10.030;2023-02-18T17:41:28;4.25;;;3.85;;
46198;SDS011;31928;52.104;10.030;2023-02-18T17:43:54;3.63;;;2.97;;
46198;SDS011;31928;52.104;10.030;2023-02-18T17:46:21;3.88;;;3.33;;
46198;SDS011;31928;52.104;10.030;2023-02-18T17:51:20;3.28;;;3.05;;
46198;SDS011;31928;52.104;10.030;2023-02-18T17:53:49;5.43;;;4.85;;
46198;SDS011;31928;52.104;10.030;2023-02-18T17:58:43;4.95;;;4.38;;
46198;SDS011;31928;52.104;10.030;2023-02-18T18:01:11;5.25;;;3.40;;
46198;SDS011;31928;52.104;10.030;2023-02-18T18:03:38;3.85;;;3.47;;